createdAt,value
2022-10-11T00:02:17.151Z,100548.38
2022-10-11T00:04:43.676Z,100555.19
2022-10-11T00:07:10.551Z,100552.31
2022-10-11T00:09:37.028Z,100559.25
2022-10-11T00:12:05.308Z,100558.88
2022-10-11T00:14:32.783Z,100560.69
2022-10-11T00:16:59.526Z,100563.56
2022-10-11T00:19:26.012Z,100570.69
2022-10-11T00:21:52.502Z,100568.63
2022-10-11T00:24:19.047Z,100570.31
2022-10-11T00:26:46.923Z,100565.66
2022-10-11T00:29:15.108Z,100569.28
2022-10-11T00:31:41.668Z,100571.50
2022-10-11T00:34:08.604Z,100574.22
2022-10-11T00:36:35.319Z,100575.91
2022-10-11T00:39:01.981Z,100578.38
2022-10-11T00:41:28.587Z,100575.41
2022-10-11T00:44:12.714Z,100569.47
2022-10-11T00:46:42.380Z,100580.84
2022-10-11T00:49:15.106Z,100581.34
2022-10-11T00:51:47.715Z,100580.47
2022-10-11T00:54:18.095Z,100584.53
2022-10-11T00:56:47.613Z,100591.53
2022-10-11T00:59:21.244Z,100597.47
2022-10-11T01:01:49.155Z,100595.56
2022-10-11T01:04:15.821Z,100596.75
2022-10-11T01:06:43.403Z,100601.22
2022-10-11T01:09:10.841Z,100608.66
2022-10-11T01:11:39.400Z,100596.97
2022-10-11T01:14:29.486Z,100600.31
2022-10-11T01:17:02.203Z,100607.56
2022-10-11T01:19:53.877Z,100598.78
2022-10-11T01:22:39.714Z,100600.50
2022-10-11T01:25:23.842Z,100601.34
2022-10-11T01:28:10.235Z,100596.16
2022-10-11T01:30:38.759Z,100596.91
2022-10-11T01:33:13.543Z,100596.00
2022-10-11T01:35:45.377Z,100594.97
2022-10-11T01:38:16.951Z,100600.97
2022-10-11T01:40:50.044Z,100600.66
2022-10-11T01:43:19.035Z,100600.19
2022-10-11T01:45:49.702Z,100597.22
2022-10-11T01:48:16.342Z,100600.47
2022-10-11T01:50:45.675Z,100603.28
2022-10-11T01:53:30.611Z,100600.41
2022-10-11T01:56:04.226Z,100604.06
2022-10-11T01:58:43.077Z,100597.41
2022-10-11T02:01:19.712Z,100601.69
2022-10-11T02:03:51.726Z,100597.94
2022-10-11T02:06:23.567Z,100601.44
2022-10-11T02:08:55.906Z,100604.03
2022-10-11T02:11:25.324Z,100597.13
2022-10-11T02:13:56.910Z,100604.31
2022-10-11T02:16:33.682Z,100613.28
2022-10-11T02:19:04.185Z,100607.19
2022-10-11T02:21:34.361Z,100606.16
2022-10-11T02:24:05.953Z,100609.91
2022-10-11T02:26:34.420Z,100610.13
2022-10-11T02:29:05.407Z,100604.84
2022-10-11T02:31:35.338Z,100610.41
2022-10-11T02:34:11.389Z,100605.34
2022-10-11T02:36:46.967Z,100618.13
2022-10-11T02:39:18.433Z,100627.38
2022-10-11T02:41:46.659Z,100623.13
2022-10-11T02:44:18.231Z,100632.66
2022-10-11T02:46:46.820Z,100636.56
2022-10-11T02:49:14.830Z,100637.66
2022-10-11T02:51:41.723Z,100632.66
2022-10-11T02:54:08.264Z,100636.34
2022-10-11T02:56:34.844Z,100638.00
2022-10-11T02:59:01.355Z,100631.16
2022-10-11T03:01:27.877Z,100636.66
2022-10-11T03:03:55.731Z,100632.41
2022-10-11T03:06:22.238Z,100641.50
2022-10-11T03:08:48.740Z,100641.66
2022-10-11T03:11:15.256Z,100638.66
2022-10-11T03:13:41.712Z,100644.81
2022-10-11T03:16:08.344Z,100643.13
2022-10-11T03:18:35.251Z,100654.06
2022-10-11T03:21:03.190Z,100652.09
2022-10-11T03:23:29.695Z,100655.81
2022-10-11T03:25:56.178Z,100659.69
2022-10-11T03:28:22.732Z,100664.69
2022-10-11T03:30:49.619Z,100662.00
2022-10-11T03:33:16.826Z,100665.56
2022-10-11T03:35:44.022Z,100669.34
2022-10-11T03:38:14.239Z,100664.19
2022-10-11T03:40:40.905Z,100667.19
2022-10-11T03:43:07.514Z,100678.16
2022-10-11T03:45:34.342Z,100674.50
2022-10-11T03:48:00.839Z,100671.91
2022-10-11T03:50:27.347Z,100667.59
2022-10-11T03:52:53.830Z,100668.31
2022-10-11T03:55:21.643Z,100674.56
2022-10-11T03:57:48.090Z,100678.25
2022-10-11T04:00:14.861Z,100673.69
2022-10-11T04:02:41.318Z,100681.63
2022-10-11T04:05:08.443Z,100672.59
2022-10-11T04:07:35.024Z,100672.81
2022-10-11T04:10:01.497Z,100681.72
2022-10-11T04:12:29.335Z,100679.88
2022-10-11T04:14:55.785Z,100681.72
2022-10-11T04:17:22.277Z,100682.03
2022-10-11T04:19:48.791Z,100684.19
2022-10-11T04:22:15.277Z,100685.00
2022-10-11T04:24:41.806Z,100687.81
2022-10-11T04:27:08.277Z,100689.56
2022-10-11T04:29:36.149Z,100681.56
2022-10-11T04:32:02.689Z,100698.03
2022-10-11T04:34:29.182Z,100696.31
2022-10-11T04:36:55.643Z,100696.44
2022-10-11T04:39:22.169Z,100698.03
2022-10-11T04:41:48.641Z,100699.16
2022-10-11T04:44:15.278Z,100699.81
2022-10-11T04:46:43.210Z,100700.69
2022-10-11T04:49:09.708Z,100698.66
2022-10-11T04:51:36.191Z,100699.94
2022-10-11T04:54:02.678Z,100706.44
2022-10-11T04:56:29.152Z,100704.69
2022-10-11T04:58:55.621Z,100712.19
2022-10-11T05:01:22.160Z,100707.78
2022-10-11T05:03:49.985Z,100710.38
2022-10-11T05:06:16.446Z,100707.91
2022-10-11T05:08:42.913Z,100712.19
2022-10-11T05:11:15.520Z,100712.19
2022-10-11T05:13:42.941Z,100717.69
2022-10-11T05:16:11.449Z,100716.94
2022-10-11T05:18:39.043Z,100726.91
2022-10-11T05:21:29.407Z,100723.34
2022-10-11T05:23:56.700Z,100733.13
2022-10-11T05:26:24.412Z,100729.91
2022-10-11T05:28:51.184Z,100729.84
2022-10-11T05:31:17.948Z,100736.34
2022-10-11T05:33:53.218Z,100723.34
2022-10-11T05:36:35.803Z,100744.09
2022-10-11T05:43:05.755Z,100736.63
2022-10-11T05:49:28.653Z,100739.00
2022-10-11T05:52:34.311Z,100738.06
2022-10-11T05:55:17.258Z,100747.34
2022-10-11T06:01:02.494Z,100753.13
2022-10-11T06:03:41.823Z,100762.13
2022-10-11T06:06:24.162Z,100736.97
2022-10-11T06:09:20.900Z,100755.41
2022-10-11T06:12:10.633Z,100748.75
2022-10-11T06:14:56.095Z,100748.75
2022-10-11T06:17:51.244Z,100738.34
2022-10-11T06:26:57.339Z,100772.34
2022-10-11T06:29:52.844Z,100759.75
2022-10-11T06:33:04.816Z,100777.69
2022-10-11T06:35:53.505Z,100752.81
2022-10-11T06:39:04.305Z,100775.50
2022-10-11T06:41:55.206Z,100773.38
2022-10-11T06:44:50.946Z,100756.22
2022-10-11T06:51:03.337Z,100778.63
2022-10-11T06:53:35.842Z,100780.63
2022-10-11T06:56:23.563Z,100766.06
2022-10-11T06:59:14.337Z,100788.25
2022-10-11T07:02:20.343Z,100776.28
2022-10-11T07:05:10.198Z,100795.41
2022-10-11T07:07:36.693Z,100801.47
2022-10-11T07:10:03.429Z,100809.16
2022-10-11T07:12:29.884Z,100812.28
2022-10-11T07:14:57.753Z,100805.47
2022-10-11T07:17:25.715Z,100807.09
2022-10-11T07:19:52.239Z,100808.78
2022-10-11T07:22:18.708Z,100816.16
2022-10-11T07:24:45.157Z,100817.16
2022-10-11T07:27:11.608Z,100813.69
2022-10-11T07:29:38.143Z,100816.31
2022-10-11T07:32:06.124Z,100816.03
2022-10-11T07:34:33.454Z,100813.28
2022-10-11T07:37:00.269Z,100803.81
2022-10-11T07:39:26.731Z,100815.84
2022-10-11T07:41:53.262Z,100802.19
2022-10-11T07:44:19.734Z,100810.88
2022-10-11T07:46:51.820Z,100812.63
2022-10-11T07:49:20.290Z,100811.53
2022-10-11T07:51:47.078Z,100821.94
2022-10-11T07:54:13.600Z,100814.72
2022-10-11T07:56:40.285Z,100823.94
2022-10-11T07:59:06.811Z,100820.56
2022-10-11T08:01:33.454Z,100818.69
2022-10-11T08:04:00.145Z,100812.13
2022-10-11T08:06:29.884Z,100820.00
2022-10-11T08:08:58.540Z,100823.09
2022-10-11T08:11:27.245Z,100818.06
2022-10-11T08:13:54.385Z,100824.63
2022-10-11T08:16:21.620Z,100829.25
2022-10-11T08:18:48.267Z,100823.69
2022-10-11T08:21:17.097Z,100829.03
2022-10-11T08:23:44.974Z,100828.50
2022-10-11T08:26:11.510Z,100837.28
2022-10-11T08:28:38.594Z,100826.34
2022-10-11T08:31:05.573Z,100837.44
2022-10-11T08:33:32.624Z,100834.00
2022-10-11T08:36:03.722Z,100840.13
2022-10-11T08:38:30.507Z,100847.69
2022-10-11T08:40:59.882Z,100839.31
2022-10-11T08:43:41.056Z,100842.13
2022-10-11T08:46:08.932Z,100848.63
2022-10-11T08:48:40.088Z,100849.53
2022-10-11T08:51:14.913Z,100855.94
2022-10-11T08:53:47.297Z,100856.63
2022-10-11T08:56:17.312Z,100860.00
2022-10-11T08:58:49.693Z,100846.47
2022-10-11T09:01:20.654Z,100848.44
2022-10-11T09:03:48.763Z,100861.06
2022-10-11T09:06:26.591Z,100857.88
2022-10-11T09:09:10.454Z,100862.94
2022-10-11T09:11:48.948Z,100862.06
2022-10-11T09:14:38.656Z,100846.88
2022-10-11T09:17:13.479Z,100861.72
2022-10-11T09:20:01.246Z,100861.84
2022-10-11T09:22:38.243Z,100857.56
2022-10-11T09:25:18.347Z,100854.91
2022-10-11T09:28:03.279Z,100862.59
2022-10-11T09:30:31.504Z,100867.13
2022-10-11T09:33:08.532Z,100862.16
2022-10-11T09:35:39.215Z,100870.44
2022-10-11T09:38:12.640Z,100861.84
2022-10-11T09:40:50.569Z,100856.47
2022-10-11T09:43:18.619Z,100867.91
2022-10-11T09:45:49.237Z,100870.97
2022-10-11T09:48:20.043Z,100866.69
2022-10-11T09:50:46.845Z,100871.16
2022-10-11T09:53:13.511Z,100865.97
2022-10-11T09:55:46.935Z,100863.47
2022-10-11T09:58:28.055Z,100868.91
2022-10-11T10:01:08.164Z,100872.31
2022-10-11T10:03:36.663Z,100871.09
2022-10-11T10:06:09.377Z,100881.22
2022-10-11T10:08:36.439Z,100880.72
2022-10-11T10:11:05.164Z,100877.00
2022-10-11T10:13:41.936Z,100873.94
2022-10-11T10:16:19.693Z,100873.50
2022-10-11T10:18:51.235Z,100877.78
2022-10-11T10:21:26.060Z,100862.19
2022-10-11T10:23:53.716Z,100862.59
2022-10-11T10:26:22.603Z,100877.44
2022-10-11T10:29:01.158Z,100878.63
2022-10-11T10:31:54.898Z,100874.44
2022-10-11T10:34:25.693Z,100872.38
2022-10-11T10:36:55.280Z,100879.34
2022-10-11T10:39:28.759Z,100868.44
2022-10-11T10:41:55.962Z,100866.50
2022-10-11T10:44:23.818Z,100871.78
2022-10-11T10:47:02.287Z,100867.66
2022-10-11T10:49:53.743Z,100861.09
2022-10-11T10:52:41.592Z,100873.38
2022-10-11T10:55:19.423Z,100874.28
2022-10-11T10:57:59.778Z,100870.97
2022-10-11T11:00:34.048Z,100865.44
2022-10-11T11:03:02.844Z,100871.00
2022-10-11T11:05:41.483Z,100871.25
2022-10-11T11:08:14.816Z,100867.94
2022-10-11T11:10:47.647Z,100866.75
2022-10-11T11:13:22.345Z,100860.53
2022-10-11T11:15:55.756Z,100867.09
2022-10-11T11:18:28.950Z,100858.72
2022-10-11T11:21:11.413Z,100845.44
2022-10-11T11:23:43.928Z,100854.09
2022-10-11T11:26:20.052Z,100853.72
2022-10-11T11:28:59.799Z,100853.50
2022-10-11T11:31:42.811Z,100846.78
2022-10-11T11:34:19.561Z,100851.88
2022-10-11T11:36:58.507Z,100849.13
2022-10-11T11:39:29.535Z,100829.22
2022-10-11T11:42:01.339Z,100845.59
2022-10-11T11:44:31.700Z,100842.84
2022-10-11T11:47:03.219Z,100831.84
2022-10-11T11:49:34.461Z,100835.50
2022-10-11T11:52:02.740Z,100830.69
2022-10-11T11:54:44.330Z,100831.09
2022-10-11T11:58:06.960Z,100809.63
2022-10-11T12:00:41.776Z,100830.22
2022-10-11T12:03:13.313Z,100827.94
2022-10-11T12:06:23.017Z,100821.19
2022-10-11T12:08:59.566Z,100814.66
2022-10-11T12:11:34.561Z,100815.31
2022-10-11T12:14:29.435Z,100815.63
2022-10-11T12:17:30.227Z,100795.19
2022-10-11T12:20:20.917Z,100804.28
2022-10-11T12:22:56.296Z,100795.44
2022-10-11T12:26:04.716Z,100791.38
2022-10-11T12:29:15.043Z,100788.78
2022-10-11T12:31:46.012Z,100796.72
2022-10-11T12:34:34.381Z,100788.34
2022-10-11T12:40:37.930Z,100778.50
2022-10-11T12:47:18.057Z,100758.63
2022-10-11T12:50:02.775Z,100773.53
2022-10-11T12:53:20.544Z,100771.66
2022-10-11T12:55:57.899Z,100765.47
2022-10-11T12:58:46.886Z,100772.81
2022-10-11T13:01:22.033Z,100768.75
2022-10-11T13:03:59.883Z,100754.88
2022-10-11T13:06:29.064Z,100755.94
2022-10-11T13:09:03.937Z,100765.06
2022-10-11T13:11:35.542Z,100756.88
2022-10-11T13:14:08.741Z,100744.97
2022-10-11T13:16:58.223Z,100764.22
2022-10-11T13:19:25.035Z,100759.63
2022-10-11T13:21:55.363Z,100754.50
2022-10-11T13:24:23.929Z,100752.38
2022-10-11T13:30:28.737Z,100725.28
2022-10-11T13:32:56.060Z,100749.69
2022-10-11T13:35:29.507Z,100748.66
2022-10-11T13:37:59.413Z,100739.38
2022-10-11T13:43:54.557Z,100737.25
2022-10-11T13:46:24.529Z,100735.28
2022-10-11T13:49:02.991Z,100731.03
2022-10-11T13:51:33.224Z,100738.03
2022-10-11T13:54:02.459Z,100735.53
2022-10-11T13:56:31.904Z,100736.09
2022-10-11T13:59:01.038Z,100733.44
2022-10-11T14:01:35.720Z,100736.28
2022-10-11T14:04:05.032Z,100734.66
2022-10-11T14:06:47.662Z,100739.72
2022-10-11T14:09:21.529Z,100741.41
2022-10-11T14:11:48.515Z,100739.91
2022-10-11T14:14:47.530Z,100728.84
2022-10-11T14:17:16.971Z,100738.44
2022-10-11T14:19:45.019Z,100725.63
2022-10-11T14:22:16.022Z,100731.50
2022-10-11T14:24:42.827Z,100731.31
2022-10-11T14:27:16.404Z,100724.28
2022-10-11T14:29:48.145Z,100723.22
2022-10-11T14:32:29.585Z,100722.91
2022-10-11T14:34:56.797Z,100731.34
2022-10-11T14:37:24.043Z,100727.78
2022-10-11T14:39:50.823Z,100726.38
2022-10-11T14:42:18.180Z,100727.88
2022-10-11T14:44:44.673Z,100723.47
2022-10-11T14:47:14.674Z,100721.91
2022-10-11T14:49:44.072Z,100724.81
2022-10-11T14:52:12.429Z,100725.47
2022-10-11T14:54:39.705Z,100730.25
2022-10-11T14:57:06.375Z,100731.25
2022-10-11T14:59:35.122Z,100726.41
2022-10-11T15:02:03.568Z,100716.63
2022-10-11T15:04:30.220Z,100715.88
2022-10-11T15:06:59.596Z,100714.31
2022-10-11T15:09:26.114Z,100708.97
2022-10-11T15:11:53.490Z,100718.28
2022-10-11T15:14:21.154Z,100711.31
2022-10-11T15:16:47.932Z,100711.94
2022-10-11T15:19:16.163Z,100707.88
2022-10-11T15:21:42.893Z,100704.97
2022-10-11T15:24:11.098Z,100700.19
2022-10-11T15:26:37.625Z,100704.69
2022-10-11T15:29:04.183Z,100700.81
2022-10-11T15:31:30.982Z,100698.75
2022-10-11T15:33:57.766Z,100698.59
2022-10-11T15:36:24.727Z,100702.22
2022-10-11T15:38:51.593Z,100705.41
2022-10-11T15:41:20.201Z,100708.59
2022-10-11T15:43:48.603Z,100703.94
2022-10-11T15:46:17.656Z,100701.94
2022-10-11T15:48:48.349Z,100704.69
2022-10-11T15:51:15.129Z,100702.28
2022-10-11T15:53:41.749Z,100697.94
2022-10-11T15:56:12.584Z,100698.59
2022-10-11T15:58:41.436Z,100700.91
2022-10-11T16:01:11.566Z,100696.50
2022-10-11T16:03:38.135Z,100700.47
2022-10-11T16:06:08.263Z,100666.53
2022-10-11T16:08:40.088Z,100681.66
2022-10-11T16:11:08.304Z,100693.06
2022-10-11T16:17:00.231Z,100689.69
2022-10-11T16:20:02.151Z,100699.00
2022-10-11T16:22:29.755Z,100699.00
2022-10-11T16:24:56.288Z,100706.03
2022-10-11T16:27:22.952Z,100673.72
2022-10-11T16:29:52.584Z,100701.91
2022-10-11T16:32:38.470Z,100684.09
2022-10-11T16:35:06.413Z,100701.28
2022-10-11T16:37:33.916Z,100701.94
2022-10-11T16:40:00.954Z,100694.88
2022-10-11T16:42:27.562Z,100710.53
2022-10-11T16:44:54.323Z,100707.00
2022-10-11T16:47:23.959Z,100709.38
2022-10-11T16:49:52.049Z,100697.50
2022-10-11T16:52:18.801Z,100706.09
2022-10-11T16:55:00.148Z,100692.56
2022-10-11T16:57:32.927Z,100707.31
2022-10-11T17:00:09.806Z,100684.28
2022-10-11T17:02:51.259Z,100701.19
2022-10-11T17:08:09.977Z,100701.75
2022-10-11T17:10:36.533Z,100713.00
2022-10-11T17:13:12.862Z,100701.84
2022-10-11T17:15:39.780Z,100696.91
2022-10-11T17:18:06.523Z,100710.47
2022-10-11T17:20:34.631Z,100705.59
2022-10-11T17:23:01.161Z,100705.00
2022-10-11T17:25:28.874Z,100696.63
2022-10-11T17:27:55.747Z,100698.56
2022-10-11T17:30:22.267Z,100705.47
2022-10-11T17:32:56.048Z,100702.94
2022-10-11T17:35:31.221Z,100693.13
2022-10-11T17:38:46.913Z,100711.31
2022-10-11T17:41:22.230Z,100706.06
2022-10-11T17:43:48.878Z,100712.41
2022-10-11T17:46:17.337Z,100692.22
2022-10-11T17:48:43.823Z,100714.53
2022-10-11T17:51:13.542Z,100721.19
2022-10-11T17:53:42.054Z,100713.75
2022-10-11T17:56:10.803Z,100707.69
2022-10-11T17:58:38.402Z,100714.25
2022-10-11T18:01:07.370Z,100715.25
2022-10-11T18:03:34.926Z,100714.19
2022-10-11T18:06:02.658Z,100718.25
2022-10-11T18:08:29.124Z,100708.63
2022-10-11T18:10:57.114Z,100704.09
2022-10-11T18:13:23.573Z,100711.28
2022-10-11T18:15:53.504Z,100703.91
2022-10-11T18:18:20.352Z,100708.44
2022-10-11T18:20:47.516Z,100703.06
2022-10-11T18:23:14.205Z,100708.25
2022-10-11T18:25:41.386Z,100706.00
2022-10-11T18:28:09.735Z,100705.47
2022-10-11T18:30:52.848Z,100705.81
2022-10-11T18:33:19.416Z,100707.44
2022-10-11T18:35:45.886Z,100716.03
2022-10-11T18:38:12.381Z,100706.09
2022-10-11T18:40:44.761Z,100702.81
2022-10-11T18:43:14.830Z,100703.09
2022-10-11T18:45:41.379Z,100705.59
2022-10-11T18:48:08.061Z,100696.50
2022-10-11T18:50:34.656Z,100707.41
2022-10-11T18:53:01.653Z,100710.16
2022-10-11T18:58:26.976Z,100693.50
2022-10-11T19:00:53.493Z,100703.28
2022-10-11T19:03:22.873Z,100704.00
2022-10-11T19:05:49.543Z,100701.28
2022-10-11T19:08:16.060Z,100699.84
2022-10-11T19:10:42.771Z,100687.81
2022-10-11T19:13:09.426Z,100699.75
2022-10-11T19:15:37.304Z,100709.91
2022-10-11T19:18:03.932Z,100698.13
2022-10-11T19:20:31.145Z,100697.50
2022-10-11T19:22:57.708Z,100691.75
2022-10-11T19:25:24.277Z,100686.50
2022-10-11T19:27:50.807Z,100685.09
2022-10-11T19:30:21.334Z,100685.53
2022-10-11T19:32:50.000Z,100687.38
2022-10-11T19:35:19.930Z,100697.22
2022-10-11T19:37:46.653Z,100686.06
2022-10-11T19:40:13.602Z,100676.59
2022-10-11T19:42:40.112Z,100702.22
2022-10-11T19:45:09.391Z,100691.94
2022-10-11T19:47:35.982Z,100679.00
2022-10-11T19:50:04.691Z,100703.72
2022-10-11T19:52:31.453Z,100689.28
2022-10-11T19:54:58.236Z,100691.22
2022-10-11T19:57:24.945Z,100683.66
2022-10-11T19:59:51.551Z,100677.69
2022-10-11T20:02:18.056Z,100687.38
2022-10-11T20:04:52.330Z,100693.25
2022-10-11T20:07:20.780Z,100703.91
2022-10-11T20:09:47.430Z,100697.66
2022-10-11T20:12:29.217Z,100694.81
2022-10-11T20:14:56.133Z,100696.91
2022-10-11T20:17:22.653Z,100697.13
2022-10-11T20:19:49.152Z,100697.72
2022-10-11T20:22:15.645Z,100698.88
2022-10-11T20:25:13.629Z,100700.38
2022-10-11T20:27:40.139Z,100702.06
2022-10-11T20:30:07.242Z,100691.97
2022-10-11T20:32:33.765Z,100692.84
2022-10-11T20:35:00.292Z,100694.69
2022-10-11T20:37:26.789Z,100699.00
2022-10-11T20:39:53.323Z,100693.34
2022-10-11T20:42:21.290Z,100696.44
2022-10-11T20:44:47.907Z,100689.66
2022-10-11T20:47:14.822Z,100682.63
2022-10-11T20:49:41.550Z,100690.44
2022-10-11T20:52:08.309Z,100684.97
2022-10-11T20:54:34.817Z,100697.81
2022-10-11T20:57:28.861Z,100702.66
2022-10-11T20:59:55.383Z,100703.19
2022-10-11T21:02:21.920Z,100691.03
2022-10-11T21:04:48.373Z,100697.81
2022-10-11T21:07:14.854Z,100692.69
2022-10-11T21:09:41.384Z,100685.66
2022-10-11T21:12:07.980Z,100692.31
2022-10-11T21:14:35.921Z,100677.41
2022-10-11T21:17:02.451Z,100681.25
2022-10-11T21:19:28.993Z,100674.84
2022-10-11T21:21:56.406Z,100673.59
2022-10-11T21:24:23.047Z,100680.63
2022-10-11T21:26:49.603Z,100656.38
2022-10-11T21:32:14.496Z,100675.50
2022-10-11T21:34:41.175Z,100671.53
2022-10-11T21:37:07.668Z,100681.13
2022-10-11T21:39:34.148Z,100671.03
2022-10-11T21:42:00.635Z,100663.34
2022-10-11T21:44:27.168Z,100661.56
2022-10-11T21:47:06.709Z,100658.06
2022-10-11T21:49:35.649Z,100662.06
2022-10-11T21:52:02.454Z,100657.66
2022-10-11T21:54:29.113Z,100671.84
2022-10-11T21:56:55.633Z,100665.16
2022-10-11T21:59:22.146Z,100667.19
2022-10-11T22:01:48.707Z,100669.25
2022-10-11T22:04:15.351Z,100674.63
2022-10-11T22:06:43.271Z,100666.06
2022-10-11T22:09:10.041Z,100663.56
2022-10-11T22:11:37.369Z,100669.41
2022-10-11T22:14:04.382Z,100671.69
2022-10-11T22:16:33.043Z,100673.75
2022-10-11T22:18:59.656Z,100678.34
2022-10-11T22:21:26.535Z,100674.56
2022-10-11T22:23:54.865Z,100660.16
2022-10-11T22:26:24.340Z,100671.84
2022-10-11T22:28:51.281Z,100667.75
2022-10-11T22:31:20.282Z,100672.31
2022-10-11T22:33:48.132Z,100660.69
2022-10-11T22:36:15.005Z,100664.06
2022-10-11T22:38:43.200Z,100660.63
2022-10-11T22:41:47.587Z,100665.91
2022-10-11T22:44:14.508Z,100670.22
2022-10-11T22:46:41.074Z,100660.94
2022-10-11T22:49:07.584Z,100662.44
2022-10-11T22:51:43.205Z,100654.16
2022-10-11T22:54:10.764Z,100646.44
2022-10-11T22:56:38.609Z,100655.25
2022-10-11T22:59:05.129Z,100646.44
2022-10-11T23:01:31.863Z,100629.22
2022-10-11T23:03:58.422Z,100651.44
2022-10-11T23:06:25.086Z,100650.34
2022-10-11T23:08:51.582Z,100659.09
2022-10-11T23:11:53.879Z,100653.97
2022-10-11T23:14:59.035Z,100651.31
2022-10-11T23:17:25.544Z,100657.31
2022-10-11T23:20:42.394Z,100665.41
2022-10-11T23:23:07.314Z,100646.75
2022-10-11T23:25:33.839Z,100643.63
2022-10-11T23:28:00.405Z,100658.78
2022-10-11T23:30:28.838Z,100654.72
2022-10-11T23:32:55.339Z,100659.53
2022-10-11T23:35:21.869Z,100655.28
2022-10-11T23:37:48.394Z,100661.16
2022-10-11T23:40:15.167Z,100651.09
2022-10-11T23:42:41.696Z,100647.56
2022-10-11T23:45:09.251Z,100654.22
2022-10-11T23:47:37.630Z,100656.34
2022-10-11T23:50:05.372Z,100656.19
2022-10-11T23:52:31.906Z,100657.47
2022-10-11T23:55:11.408Z,100655.81
2022-10-11T23:57:38.264Z,100655.09
